sensor_id;sensor_type;location;lat;lon;timestamp;temperature;humidity
29813;DHT22;16707;48.106;11.548;2023-04-29T00:01:34;9.40;99.90
29813;DHT22;16707;48.106;11.548;2023-04-29T00:04:13;9.40;99.90
29813;DHT22;16707;48.106;11.548;2023-04-29T00:06:43;9.40;99.90
29813;DHT22;16707;48.106;11.548;2023-04-29T00:09:11;9.40;99.90
29813;DHT22;16707;48.106;11.548;2023-04-29T00:11:38;9.50;99.90
29813;DHT22;16707;48.106;11.548;2023-04-29T00:14:05;9.40;99.90
29813;DHT22;16707;48.106;11.548;2023-04-29T00:16:34;9.40;99.90
29813;DHT22;16707;48.106;11.548;2023-04-29T00:19:05;9.50;99.90
29813;DHT22;16707;48.106;11.548;2023-04-29T00:21:34;9.40;99.90
29813;DHT22;16707;48.106;11.548;2023-04-29T00:24:01;9.40;99.90
29813;DHT22;16707;48.106;11.548;2023-04-29T00:26:31;9.50;99.90
29813;DHT22;16707;48.106;11.548;2023-04-29T00:28:58;9.60;99.90
29813;DHT22;16707;48.106;11.548;2023-04-29T00:31:26;9.60;99.90
29813;DHT22;16707;48.106;11.548;2023-04-29T00:33:58;9.60;99.90
29813;DHT22;16707;48.106;11.548;2023-04-29T00:36:25;9.70;99.90
29813;DHT22;16707;48.106;11.548;2023-04-29T00:38:52;9.70;99.90
29813;DHT22;16707;48.106;11.548;2023-04-29T00:41:20;9.80;99.90
29813;DHT22;16707;48.106;11.548;2023-04-29T00:43:47;9.90;99.90
29813;DHT22;16707;48.106;11.548;2023-04-29T00:46:14;10.00;99.90
29813;DHT22;16707;48.106;11.548;2023-04-29T00:48:45;10.10;99.90
29813;DHT22;16707;48.106;11.548;2023-04-29T00:51:18;10.10;99.90
29813;DHT22;16707;48.106;11.548;2023-04-29T00:53:49;10.00;99.90
29813;DHT22;16707;48.106;11.548;2023-04-29T00:56:20;10.00;99.90
29813;DHT22;16707;48.106;11.548;2023-04-29T00:58:47;9.90;99.90
29813;DHT22;16707;48.106;11.548;2023-04-29T01:01:16;9.90;99.90
29813;DHT22;16707;48.106;11.548;2023-04-29T01:03:47;9.80;99.90
29813;DHT22;16707;48.106;11.548;2023-04-29T01:06:47;9.90;99.90
29813;DHT22;16707;48.106;11.548;2023-04-29T01:09:28;9.90;99.90
29813;DHT22;16707;48.106;11.548;2023-04-29T01:12:19;9.80;99.90
29813;DHT22;16707;48.106;11.548;2023-04-29T01:14:53;9.80;99.90
29813;DHT22;16707;48.106;11.548;2023-04-29T01:17:27;9.80;99.90
29813;DHT22;16707;48.106;11.548;2023-04-29T01:20:03;9.80;99.90
29813;DHT22;16707;48.106;11.548;2023-04-29T01:22:36;9.80;99.90
29813;DHT22;16707;48.106;11.548;2023-04-29T01:25:09;9.80;99.90
29813;DHT22;16707;48.106;11.548;2023-04-29T01:28:01;9.80;99.90
29813;DHT22;16707;48.106;11.548;2023-04-29T01:30:41;9.80;99.90
29813;DHT22;16707;48.106;11.548;2023-04-29T01:33:22;9.80;99.90
29813;DHT22;16707;48.106;11.548;2023-04-29T01:36:12;9.70;99.90
29813;DHT22;16707;48.106;11.548;2023-04-29T01:38:51;9.80;99.90
29813;DHT22;16707;48.106;11.548;2023-04-29T01:41:39;9.80;99.90
29813;DHT22;16707;48.106;11.548;2023-04-29T01:44:14;9.80;99.90
29813;DHT22;16707;48.106;11.548;2023-04-29T01:46:43;9.80;99.90
29813;DHT22;16707;48.106;11.548;2023-04-29T01:49:18;9.80;99.90
29813;DHT22;16707;48.106;11.548;2023-04-29T01:51:45;9.70;99.90
29813;DHT22;16707;48.106;11.548;2023-04-29T01:54:20;9.90;99.90
29813;DHT22;16707;48.106;11.548;2023-04-29T01:56:49;9.90;99.90
29813;DHT22;16707;48.106;11.548;2023-04-29T01:59:16;9.90;99.90
29813;DHT22;16707;48.106;11.548;2023-04-29T02:01:50;9.90;99.90
29813;DHT22;16707;48.106;11.548;2023-04-29T02:04:21;9.90;99.90
29813;DHT22;16707;48.106;11.548;2023-04-29T02:06:55;9.90;99.90
29813;DHT22;16707;48.106;11.548;2023-04-29T02:09:25;9.90;99.90
29813;DHT22;16707;48.106;11.548;2023-04-29T02:12:00;10.00;99.90
29813;DHT22;16707;48.106;11.548;2023-04-29T02:14:38;10.20;99.90
29813;DHT22;16707;48.106;11.548;2023-04-29T02:17:05;10.30;99.90
29813;DHT22;16707;48.106;11.548;2023-04-29T02:19:36;10.40;99.90
29813;DHT22;16707;48.106;11.548;2023-04-29T02:22:03;10.50;99.90
29813;DHT22;16707;48.106;11.548;2023-04-29T02:24:40;10.50;99.90
29813;DHT22;16707;48.106;11.548;2023-04-29T02:27:08;10.50;99.90
29813;DHT22;16707;48.106;11.548;2023-04-29T02:29:41;10.50;99.90
29813;DHT22;16707;48.106;11.548;2023-04-29T02:32:11;10.40;99.90
29813;DHT22;16707;48.106;11.548;2023-04-29T02:34:45;10.40;99.90
29813;DHT22;16707;48.106;11.548;2023-04-29T02:37:12;10.40;99.90
29813;DHT22;16707;48.106;11.548;2023-04-29T02:39:40;10.40;99.90
29813;DHT22;16707;48.106;11.548;2023-04-29T02:42:09;10.40;99.90
29813;DHT22;16707;48.106;11.548;2023-04-29T02:44:42;10.40;99.90
29813;DHT22;16707;48.106;11.548;2023-04-29T02:47:10;10.40;99.90
29813;DHT22;16707;48.106;11.548;2023-04-29T02:49:40;10.40;99.90
29813;DHT22;16707;48.106;11.548;2023-04-29T02:52:07;10.30;99.90
29813;DHT22;16707;48.106;11.548;2023-04-29T02:54:38;10.30;99.90
29813;DHT22;16707;48.106;11.548;2023-04-29T02:57:09;10.30;99.90
29813;DHT22;16707;48.106;11.548;2023-04-29T02:59:41;10.20;99.90
29813;DHT22;16707;48.106;11.548;2023-04-29T03:02:15;10.20;99.90
29813;DHT22;16707;48.106;11.548;2023-04-29T03:04:46;10.30;99.90
29813;DHT22;16707;48.106;11.548;2023-04-29T03:07:13;10.30;99.90
29813;DHT22;16707;48.106;11.548;2023-04-29T03:09:42;10.30;99.90
29813;DHT22;16707;48.106;11.548;2023-04-29T03:12:14;10.40;99.90
29813;DHT22;16707;48.106;11.548;2023-04-29T03:14:51;10.40;99.90
29813;DHT22;16707;48.106;11.548;2023-04-29T03:17:18;10.40;99.90
29813;DHT22;16707;48.106;11.548;2023-04-29T03:19:47;10.40;99.90
29813;DHT22;16707;48.106;11.548;2023-04-29T03:22:16;10.50;99.90
29813;DHT22;16707;48.106;11.548;2023-04-29T03:24:44;10.40;99.90
29813;DHT22;16707;48.106;11.548;2023-04-29T03:27:18;10.50;99.90
29813;DHT22;16707;48.106;11.548;2023-04-29T03:29:56;10.50;99.90
29813;DHT22;16707;48.106;11.548;2023-04-29T03:32:26;10.40;99.90
29813;DHT22;16707;48.106;11.548;2023-04-29T03:34:56;10.30;99.90
29813;DHT22;16707;48.106;11.548;2023-04-29T03:37:29;10.30;99.90
29813;DHT22;16707;48.106;11.548;2023-04-29T03:39:58;10.30;99.90
29813;DHT22;16707;48.106;11.548;2023-04-29T03:42:27;10.30;99.90
29813;DHT22;16707;48.106;11.548;2023-04-29T03:44:57;10.30;99.90
29813;DHT22;16707;48.106;11.548;2023-04-29T03:47:27;10.30;99.90
29813;DHT22;16707;48.106;11.548;2023-04-29T03:50:00;10.40;99.90
29813;DHT22;16707;48.106;11.548;2023-04-29T03:52:55;10.40;99.90
29813;DHT22;16707;48.106;11.548;2023-04-29T03:55:28;10.40;99.90
29813;DHT22;16707;48.106;11.548;2023-04-29T03:58:00;10.40;99.90
29813;DHT22;16707;48.106;11.548;2023-04-29T04:00:35;10.30;99.90
29813;DHT22;16707;48.106;11.548;2023-04-29T04:03:02;10.30;99.90
29813;DHT22;16707;48.106;11.548;2023-04-29T04:05:29;10.40;99.90
29813;DHT22;16707;48.106;11.548;2023-04-29T04:07:56;10.40;99.90
29813;DHT22;16707;48.106;11.548;2023-04-29T04:10:25;10.40;99.90
29813;DHT22;16707;48.106;11.548;2023-04-29T04:12:58;10.50;99.90
29813;DHT22;16707;48.106;11.548;2023-04-29T04:15:25;10.60;99.90
29813;DHT22;16707;48.106;11.548;2023-04-29T04:18:04;10.60;99.90
29813;DHT22;16707;48.106;11.548;2023-04-29T04:20:36;10.60;99.90
29813;DHT22;16707;48.106;11.548;2023-04-29T04:23:03;10.60;99.90
29813;DHT22;16707;48.106;11.548;2023-04-29T04:25:31;10.70;99.90
29813;DHT22;16707;48.106;11.548;2023-04-29T04:28:08;10.70;99.90
29813;DHT22;16707;48.106;11.548;2023-04-29T04:30:36;10.80;99.90
29813;DHT22;16707;48.106;11.548;2023-04-29T04:33:11;10.80;99.90
29813;DHT22;16707;48.106;11.548;2023-04-29T04:35:47;10.80;99.90
29813;DHT22;16707;48.106;11.548;2023-04-29T04:38:14;10.90;99.90
29813;DHT22;16707;48.106;11.548;2023-04-29T04:40:45;11.00;99.90
29813;DHT22;16707;48.106;11.548;2023-04-29T04:43:15;11.10;99.90
29813;DHT22;16707;48.106;11.548;2023-04-29T04:45:42;11.20;99.90
29813;DHT22;16707;48.106;11.548;2023-04-29T04:48:09;11.40;99.90
29813;DHT22;16707;48.106;11.548;2023-04-29T04:50:39;11.50;99.90
29813;DHT22;16707;48.106;11.548;2023-04-29T04:53:10;11.60;99.90
29813;DHT22;16707;48.106;11.548;2023-04-29T04:55:38;11.80;99.90
29813;DHT22;16707;48.106;11.548;2023-04-29T04:58:10;11.70;99.90
29813;DHT22;16707;48.106;11.548;2023-04-29T05:00:45;11.80;99.90
29813;DHT22;16707;48.106;11.548;2023-04-29T05:03:30;11.80;99.90
29813;DHT22;16707;48.106;11.548;2023-04-29T05:05:59;11.90;99.90
29813;DHT22;16707;48.106;11.548;2023-04-29T05:08:26;11.90;99.90
29813;DHT22;16707;48.106;11.548;2023-04-29T05:11:00;11.90;99.90
29813;DHT22;16707;48.106;11.548;2023-04-29T05:13:27;12.00;99.90
29813;DHT22;16707;48.106;11.548;2023-04-29T05:15:55;12.00;99.90
29813;DHT22;16707;48.106;11.548;2023-04-29T05:18:25;12.20;99.90
29813;DHT22;16707;48.106;11.548;2023-04-29T05:20:56;13.00;99.90
29813;DHT22;16707;48.106;11.548;2023-04-29T05:23:27;13.80;99.90
29813;DHT22;16707;48.106;11.548;2023-04-29T05:25:57;15.00;99.90
29813;DHT22;16707;48.106;11.548;2023-04-29T05:28:25;15.30;99.90
29813;DHT22;16707;48.106;11.548;2023-04-29T05:30:57;15.70;99.90
29813;DHT22;16707;48.106;11.548;2023-04-29T05:33:30;16.90;99.90
29813;DHT22;16707;48.106;11.548;2023-04-29T05:35:58;18.60;99.90
29813;DHT22;16707;48.106;11.548;2023-04-29T05:38:31;22.50;99.90
29813;DHT22;16707;48.106;11.548;2023-04-29T05:40:58;21.30;99.20
29813;DHT22;16707;48.106;11.548;2023-04-29T05:43:27;21.60;98.80
29813;DHT22;16707;48.106;11.548;2023-04-29T05:45:54;22.70;98.80
29813;DHT22;16707;48.106;11.548;2023-04-29T05:48:23;25.10;90.20
29813;DHT22;16707;48.106;11.548;2023-04-29T05:50:54;28.00;71.80
29813;DHT22;16707;48.106;11.548;2023-04-29T05:53:21;25.50;70.40
29813;DHT22;16707;48.106;11.548;2023-04-29T05:55:48;24.80;79.70
29813;DHT22;16707;48.106;11.548;2023-04-29T05:58:15;26.80;71.40
29813;DHT22;16707;48.106;11.548;2023-04-29T06:00:42;28.30;62.20
29813;DHT22;16707;48.106;11.548;2023-04-29T06:03:10;28.80;58.30
29813;DHT22;16707;48.106;11.548;2023-04-29T06:05:41;29.10;55.90
29813;DHT22;16707;48.106;11.548;2023-04-29T06:08:10;29.10;54.90
29813;DHT22;16707;48.106;11.548;2023-04-29T06:10:38;29.70;53.60
29813;DHT22;16707;48.106;11.548;2023-04-29T06:13:05;30.40;51.90
29813;DHT22;16707;48.106;11.548;2023-04-29T06:15:44;29.90;53.10
29813;DHT22;16707;48.106;11.548;2023-04-29T06:18:11;30.90;50.40
29813;DHT22;16707;48.106;11.548;2023-04-29T06:20:40;30.90;49.60
29813;DHT22;16707;48.106;11.548;2023-04-29T06:23:10;28.80;53.20
29813;DHT22;16707;48.106;11.548;2023-04-29T06:25:37;27.90;52.60
29813;DHT22;16707;48.106;11.548;2023-04-29T06:28:04;26.60;55.90
29813;DHT22;16707;48.106;11.548;2023-04-29T06:30:33;25.40;61.70
29813;DHT22;16707;48.106;11.548;2023-04-29T06:33:00;26.30;60.30
29813;DHT22;16707;48.106;11.548;2023-04-29T06:35:30;22.10;70.60
29813;DHT22;16707;48.106;11.548;2023-04-29T06:37:59;21.10;81.10
29813;DHT22;16707;48.106;11.548;2023-04-29T06:40:27;19.20;91.40
29813;DHT22;16707;48.106;11.548;2023-04-29T06:43:00;18.00;98.80
29813;DHT22;16707;48.106;11.548;2023-04-29T06:45:29;17.50;99.90
29813;DHT22;16707;48.106;11.548;2023-04-29T06:48:00;17.00;99.90
29813;DHT22;16707;48.106;11.548;2023-04-29T06:50:28;16.80;99.90
29813;DHT22;16707;48.106;11.548;2023-04-29T06:53:00;16.40;99.90
29813;DHT22;16707;48.106;11.548;2023-04-29T06:55:36;16.00;99.90
29813;DHT22;16707;48.106;11.548;2023-04-29T06:58:18;15.80;99.90
29813;DHT22;16707;48.106;11.548;2023-04-29T07:00:53;15.70;99.90
29813;DHT22;16707;48.106;11.548;2023-04-29T07:03:28;15.80;99.90
29813;DHT22;16707;48.106;11.548;2023-04-29T07:05:55;15.60;99.90
29813;DHT22;16707;48.106;11.548;2023-04-29T07:08:29;15.80;99.90
29813;DHT22;16707;48.106;11.548;2023-04-29T07:11:03;16.30;99.90
29813;DHT22;16707;48.106;11.548;2023-04-29T07:13:32;16.40;99.90
29813;DHT22;16707;48.106;11.548;2023-04-29T07:16:02;16.70;99.90
29813;DHT22;16707;48.106;11.548;2023-04-29T07:18:51;17.00;99.90
29813;DHT22;16707;48.106;11.548;2023-04-29T07:21:20;17.50;99.90
29813;DHT22;16707;48.106;11.548;2023-04-29T07:23:49;17.40;99.90
29813;DHT22;16707;48.106;11.548;2023-04-29T07:26:19;17.10;99.90
29813;DHT22;16707;48.106;11.548;2023-04-29T07:28:49;16.90;99.90
29813;DHT22;16707;48.106;11.548;2023-04-29T07:31:23;17.00;99.90
29813;DHT22;16707;48.106;11.548;2023-04-29T07:33:56;17.20;99.90
29813;DHT22;16707;48.106;11.548;2023-04-29T07:36:26;17.60;99.90
29813;DHT22;16707;48.106;11.548;2023-04-29T07:38:55;17.70;99.90
29813;DHT22;16707;48.106;11.548;2023-04-29T07:41:26;17.70;99.90
29813;DHT22;16707;48.106;11.548;2023-04-29T07:43:59;18.00;99.90
29813;DHT22;16707;48.106;11.548;2023-04-29T07:46:29;17.90;99.90
29813;DHT22;16707;48.106;11.548;2023-04-29T07:48:56;17.60;99.90
29813;DHT22;16707;48.106;11.548;2023-04-29T07:51:29;17.70;99.90
29813;DHT22;16707;48.106;11.548;2023-04-29T07:53:58;18.00;99.90
29813;DHT22;16707;48.106;11.548;2023-04-29T07:56:27;17.90;99.90
29813;DHT22;16707;48.106;11.548;2023-04-29T07:58:55;18.40;99.90
29813;DHT22;16707;48.106;11.548;2023-04-29T08:01:22;18.50;99.90
29813;DHT22;16707;48.106;11.548;2023-04-29T08:03:49;18.60;99.90
29813;DHT22;16707;48.106;11.548;2023-04-29T08:06:16;18.20;99.90
29813;DHT22;16707;48.106;11.548;2023-04-29T08:08:48;18.70;99.90
29813;DHT22;16707;48.106;11.548;2023-04-29T08:11:17;19.20;99.90
29813;DHT22;16707;48.106;11.548;2023-04-29T08:13:45;19.50;99.50
29813;DHT22;16707;48.106;11.548;2023-04-29T08:16:16;19.60;98.50
29813;DHT22;16707;48.106;11.548;2023-04-29T08:18:53;19.10;99.20
29813;DHT22;16707;48.106;11.548;2023-04-29T08:21:23;18.70;99.90
29813;DHT22;16707;48.106;11.548;2023-04-29T08:23:54;19.00;98.60
29813;DHT22;16707;48.106;11.548;2023-04-29T08:26:22;19.10;97.90
29813;DHT22;16707;48.106;11.548;2023-04-29T08:28:50;19.30;96.00
29813;DHT22;16707;48.106;11.548;2023-04-29T08:31:18;18.90;98.20
29813;DHT22;16707;48.106;11.548;2023-04-29T08:33:48;18.60;99.90
29813;DHT22;16707;48.106;11.548;2023-04-29T08:36:18;18.10;99.90
29813;DHT22;16707;48.106;11.548;2023-04-29T08:38:50;17.60;99.90
29813;DHT22;16707;48.106;11.548;2023-04-29T08:41:30;17.10;99.90
29813;DHT22;16707;48.106;11.548;2023-04-29T08:44:01;16.70;99.90
29813;DHT22;16707;48.106;11.548;2023-04-29T08:46:28;16.40;99.90
29813;DHT22;16707;48.106;11.548;2023-04-29T08:49:02;16.20;99.90
29813;DHT22;16707;48.106;11.548;2023-04-29T08:51:29;16.40;99.90
29813;DHT22;16707;48.106;11.548;2023-04-29T08:54:02;16.70;99.90
29813;DHT22;16707;48.106;11.548;2023-04-29T08:56:31;17.10;99.90
29813;DHT22;16707;48.106;11.548;2023-04-29T08:59:01;17.50;99.90
29813;DHT22;16707;48.106;11.548;2023-04-29T09:01:28;18.00;98.90
29813;DHT22;16707;48.106;11.548;2023-04-29T09:04:07;18.60;97.70
29813;DHT22;16707;48.106;11.548;2023-04-29T09:06:39;19.20;95.90
29813;DHT22;16707;48.106;11.548;2023-04-29T09:09:14;19.30;94.80
29813;DHT22;16707;48.106;11.548;2023-04-29T09:11:47;19.20;94.60
29813;DHT22;16707;48.106;11.548;2023-04-29T09:14:18;18.80;93.60
29813;DHT22;16707;48.106;11.548;2023-04-29T09:16:45;19.00;94.50
29813;DHT22;16707;48.106;11.548;2023-04-29T09:19:28;19.10;95.10
29813;DHT22;16707;48.106;11.548;2023-04-29T09:21:56;19.00;94.90
29813;DHT22;16707;48.106;11.548;2023-04-29T09:24:25;18.60;96.00
29813;DHT22;16707;48.106;11.548;2023-04-29T09:26:57;18.40;96.10
29813;DHT22;16707;48.106;11.548;2023-04-29T09:29:28;18.60;96.70
29813;DHT22;16707;48.106;11.548;2023-04-29T09:31:57;19.10;96.30
29813;DHT22;16707;48.106;11.548;2023-04-29T09:34:31;19.40;92.40
29813;DHT22;16707;48.106;11.548;2023-04-29T09:37:22;19.60;92.20
29813;DHT22;16707;48.106;11.548;2023-04-29T09:39:50;19.10;90.40
29813;DHT22;16707;48.106;11.548;2023-04-29T09:42:21;18.90;91.20
29813;DHT22;16707;48.106;11.548;2023-04-29T09:44:49;18.80;92.90
29813;DHT22;16707;48.106;11.548;2023-04-29T09:47:16;18.30;93.40
29813;DHT22;16707;48.106;11.548;2023-04-29T09:49:44;18.20;94.20
29813;DHT22;16707;48.106;11.548;2023-04-29T09:52:12;18.10;94.10
29813;DHT22;16707;48.106;11.548;2023-04-29T09:54:41;17.80;93.70
29813;DHT22;16707;48.106;11.548;2023-04-29T09:57:10;17.40;95.20
29813;DHT22;16707;48.106;11.548;2023-04-29T09:59:42;17.10;96.20
29813;DHT22;16707;48.106;11.548;2023-04-29T10:02:12;17.10;96.70
29813;DHT22;16707;48.106;11.548;2023-04-29T10:04:41;17.30;96.40
29813;DHT22;16707;48.106;11.548;2023-04-29T10:07:13;17.50;95.40
29813;DHT22;16707;48.106;11.548;2023-04-29T10:09:43;17.50;95.50
29813;DHT22;16707;48.106;11.548;2023-04-29T10:12:14;17.70;96.20
29813;DHT22;16707;48.106;11.548;2023-04-29T10:14:49;18.00;94.90
29813;DHT22;16707;48.106;11.548;2023-04-29T10:17:26;18.40;93.00
29813;DHT22;16707;48.106;11.548;2023-04-29T10:20:05;18.70;92.10
29813;DHT22;16707;48.106;11.548;2023-04-29T10:22:41;18.80;91.20
29813;DHT22;16707;48.106;11.548;2023-04-29T10:25:13;19.10;90.10
29813;DHT22;16707;48.106;11.548;2023-04-29T10:27:48;19.50;85.50
29813;DHT22;16707;48.106;11.548;2023-04-29T10:30:20;19.80;85.40
29813;DHT22;16707;48.106;11.548;2023-04-29T10:32:53;20.30;83.90
29813;DHT22;16707;48.106;11.548;2023-04-29T10:35:29;20.60;84.60
29813;DHT22;16707;48.106;11.548;2023-04-29T10:38:00;20.00;89.00
29813;DHT22;16707;48.106;11.548;2023-04-29T10:40:38;19.20;91.20
29813;DHT22;16707;48.106;11.548;2023-04-29T10:43:11;19.00;92.70
29813;DHT22;16707;48.106;11.548;2023-04-29T10:45:40;18.60;93.40
29813;DHT22;16707;48.106;11.548;2023-04-29T10:48:12;18.10;94.50
29813;DHT22;16707;48.106;11.548;2023-04-29T10:50:59;17.70;94.70
29813;DHT22;16707;48.106;11.548;2023-04-29T10:53:27;17.50;96.10
29813;DHT22;16707;48.106;11.548;2023-04-29T10:56:06;17.90;96.40
29813;DHT22;16707;48.106;11.548;2023-04-29T10:58:37;18.20;93.70
29813;DHT22;16707;48.106;11.548;2023-04-29T11:01:17;18.40;93.50
29813;DHT22;16707;48.106;11.548;2023-04-29T11:03:52;18.30;93.80
29813;DHT22;16707;48.106;11.548;2023-04-29T11:06:24;17.90;92.30
29813;DHT22;16707;48.106;11.548;2023-04-29T11:09:02;17.80;92.30
29813;DHT22;16707;48.106;11.548;2023-04-29T11:11:56;17.80;92.50
29813;DHT22;16707;48.106;11.548;2023-04-29T11:14:28;18.10;94.40
29813;DHT22;16707;48.106;11.548;2023-04-29T11:16:58;18.20;93.10
29813;DHT22;16707;48.106;11.548;2023-04-29T11:19:44;18.00;92.60
29813;DHT22;16707;48.106;11.548;2023-04-29T11:22:14;17.90;93.70
29813;DHT22;16707;48.106;11.548;2023-04-29T11:24:56;17.70;92.60
29813;DHT22;16707;48.106;11.548;2023-04-29T11:27:34;17.80;92.60
29813;DHT22;16707;48.106;11.548;2023-04-29T11:30:05;17.80;92.70
29813;DHT22;16707;48.106;11.548;2023-04-29T11:32:35;18.20;92.80
29813;DHT22;16707;48.106;11.548;2023-04-29T11:35:08;18.40;90.80
29813;DHT22;16707;48.106;11.548;2023-04-29T11:37:36;18.30;90.00
29813;DHT22;16707;48.106;11.548;2023-04-29T11:40:05;18.70;87.50
29813;DHT22;16707;48.106;11.548;2023-04-29T11:42:39;18.60;90.10
29813;DHT22;16707;48.106;11.548;2023-04-29T11:45:12;18.90;89.50
29813;DHT22;16707;48.106;11.548;2023-04-29T11:47:43;19.10;88.30
29813;DHT22;16707;48.106;11.548;2023-04-29T11:50:15;19.10;84.80
29813;DHT22;16707;48.106;11.548;2023-04-29T11:52:46;18.50;87.00
29813;DHT22;16707;48.106;11.548;2023-04-29T11:55:13;18.60;87.10
29813;DHT22;16707;48.106;11.548;2023-04-29T11:57:41;18.70;85.70
29813;DHT22;16707;48.106;11.548;2023-04-29T12:00:08;18.60;84.50
29813;DHT22;16707;48.106;11.548;2023-04-29T12:02:49;18.80;84.20
29813;DHT22;16707;48.106;11.548;2023-04-29T12:05:17;18.70;82.90
29813;DHT22;16707;48.106;11.548;2023-04-29T12:07:44;18.30;84.20
29813;DHT22;16707;48.106;11.548;2023-04-29T12:10:15;18.40;85.40
29813;DHT22;16707;48.106;11.548;2023-04-29T12:12:45;18.30;83.60
29813;DHT22;16707;48.106;11.548;2023-04-29T12:15:17;18.50;82.90
29813;DHT22;16707;48.106;11.548;2023-04-29T12:17:48;18.50;86.30
29813;DHT22;16707;48.106;11.548;2023-04-29T12:20:17;18.80;82.20
29813;DHT22;16707;48.106;11.548;2023-04-29T12:22:46;19.00;82.00
29813;DHT22;16707;48.106;11.548;2023-04-29T12:25:16;19.00;79.00
29813;DHT22;16707;48.106;11.548;2023-04-29T12:27:45;18.90;80.80
29813;DHT22;16707;48.106;11.548;2023-04-29T12:30:13;18.60;79.20
29813;DHT22;16707;48.106;11.548;2023-04-29T12:32:40;18.40;79.90
29813;DHT22;16707;48.106;11.548;2023-04-29T12:35:16;18.20;81.90
29813;DHT22;16707;48.106;11.548;2023-04-29T12:37:49;18.10;81.40
29813;DHT22;16707;48.106;11.548;2023-04-29T12:40:19;18.00;80.00
29813;DHT22;16707;48.106;11.548;2023-04-29T12:42:47;17.90;82.80
29813;DHT22;16707;48.106;11.548;2023-04-29T12:45:28;17.90;81.50
29813;DHT22;16707;48.106;11.548;2023-04-29T12:47:59;18.40;82.00
29813;DHT22;16707;48.106;11.548;2023-04-29T12:50:33;18.50;81.00
29813;DHT22;16707;48.106;11.548;2023-04-29T12:53:06;18.50;81.70
29813;DHT22;16707;48.106;11.548;2023-04-29T12:55:37;18.20;80.20
29813;DHT22;16707;48.106;11.548;2023-04-29T12:58:05;18.40;83.10
29813;DHT22;16707;48.106;11.548;2023-04-29T13:00:34;18.30;81.20
29813;DHT22;16707;48.106;11.548;2023-04-29T13:03:03;18.20;80.70
29813;DHT22;16707;48.106;11.548;2023-04-29T13:05:31;18.20;80.80
29813;DHT22;16707;48.106;11.548;2023-04-29T13:07:59;18.40;80.00
29813;DHT22;16707;48.106;11.548;2023-04-29T13:10:35;18.20;83.80
29813;DHT22;16707;48.106;11.548;2023-04-29T13:13:02;18.20;80.90
29813;DHT22;16707;48.106;11.548;2023-04-29T13:15:30;18.20;79.70
29813;DHT22;16707;48.106;11.548;2023-04-29T13:18:01;18.20;79.50
29813;DHT22;16707;48.106;11.548;2023-04-29T13:20:28;18.10;79.70
29813;DHT22;16707;48.106;11.548;2023-04-29T13:22:58;18.00;79.40
29813;DHT22;16707;48.106;11.548;2023-04-29T13:25:26;18.30;79.50
29813;DHT22;16707;48.106;11.548;2023-04-29T13:27:59;18.70;76.70
29813;DHT22;16707;48.106;11.548;2023-04-29T13:30:26;18.50;77.70
29813;DHT22;16707;48.106;11.548;2023-04-29T13:32:53;18.40;77.30
29813;DHT22;16707;48.106;11.548;2023-04-29T13:35:20;18.50;77.00
29813;DHT22;16707;48.106;11.548;2023-04-29T13:37:51;18.70;75.50
29813;DHT22;16707;48.106;11.548;2023-04-29T13:40:22;18.80;74.20
29813;DHT22;16707;48.106;11.548;2023-04-29T13:42:51;18.90;76.10
29813;DHT22;16707;48.106;11.548;2023-04-29T13:45:28;18.80;74.20
29813;DHT22;16707;48.106;11.548;2023-04-29T13:47:56;18.60;75.00
29813;DHT22;16707;48.106;11.548;2023-04-29T13:50:23;18.60;76.10
29813;DHT22;16707;48.106;11.548;2023-04-29T13:52:53;18.30;74.30
29813;DHT22;16707;48.106;11.548;2023-04-29T13:55:22;18.30;75.80
29813;DHT22;16707;48.106;11.548;2023-04-29T13:58:01;18.20;77.20
29813;DHT22;16707;48.106;11.548;2023-04-29T14:00:28;18.30;75.60
29813;DHT22;16707;48.106;11.548;2023-04-29T14:02:55;18.20;74.20
29813;DHT22;16707;48.106;11.548;2023-04-29T14:05:22;18.30;74.20
29813;DHT22;16707;48.106;11.548;2023-04-29T14:07:58;18.20;77.00
29813;DHT22;16707;48.106;11.548;2023-04-29T14:10:27;17.80;75.30
29813;DHT22;16707;48.106;11.548;2023-04-29T14:12:56;17.90;77.30
29813;DHT22;16707;48.106;11.548;2023-04-29T14:15:23;17.80;77.40
29813;DHT22;16707;48.106;11.548;2023-04-29T14:17:54;17.70;76.50
29813;DHT22;16707;48.106;11.548;2023-04-29T14:20:24;17.70;77.80
29813;DHT22;16707;48.106;11.548;2023-04-29T14:22:51;17.60;76.00
29813;DHT22;16707;48.106;11.548;2023-04-29T14:25:19;17.70;76.10
29813;DHT22;16707;48.106;11.548;2023-04-29T14:27:53;17.80;77.10
29813;DHT22;16707;48.106;11.548;2023-04-29T14:30:20;17.90;76.70
29813;DHT22;16707;48.106;11.548;2023-04-29T14:32:48;18.00;78.70
29813;DHT22;16707;48.106;11.548;2023-04-29T14:35:17;17.80;80.20
29813;DHT22;16707;48.106;11.548;2023-04-29T14:37:50;17.80;80.60
29813;DHT22;16707;48.106;11.548;2023-04-29T14:40:18;17.70;79.20
29813;DHT22;16707;48.106;11.548;2023-04-29T14:42:45;17.60;81.20
29813;DHT22;16707;48.106;11.548;2023-04-29T14:45:14;17.70;80.60
29813;DHT22;16707;48.106;11.548;2023-04-29T14:47:44;17.80;77.90
29813;DHT22;16707;48.106;11.548;2023-04-29T14:50:13;17.90;78.50
29813;DHT22;16707;48.106;11.548;2023-04-29T14:52:42;18.10;78.90
29813;DHT22;16707;48.106;11.548;2023-04-29T14:55:13;18.40;78.80
29813;DHT22;16707;48.106;11.548;2023-04-29T14:57:42;18.40;76.90
29813;DHT22;16707;48.106;11.548;2023-04-29T15:00:10;18.50;77.00
29813;DHT22;16707;48.106;11.548;2023-04-29T15:02:40;18.50;75.20
29813;DHT22;16707;48.106;11.548;2023-04-29T15:05:11;18.00;77.30
29813;DHT22;16707;48.106;11.548;2023-04-29T15:07:39;17.90;80.60
29813;DHT22;16707;48.106;11.548;2023-04-29T15:10:09;17.80;81.80
29813;DHT22;16707;48.106;11.548;2023-04-29T15:12:37;17.90;79.20
29813;DHT22;16707;48.106;11.548;2023-04-29T15:15:08;17.80;80.90
29813;DHT22;16707;48.106;11.548;2023-04-29T15:17:39;17.70;80.00
29813;DHT22;16707;48.106;11.548;2023-04-29T15:20:11;17.50;81.00
29813;DHT22;16707;48.106;11.548;2023-04-29T15:22:42;17.60;80.60
29813;DHT22;16707;48.106;11.548;2023-04-29T15:25:15;17.60;81.10
29813;DHT22;16707;48.106;11.548;2023-04-29T15:27:45;17.30;81.00
29813;DHT22;16707;48.106;11.548;2023-04-29T15:30:13;17.40;80.00
29813;DHT22;16707;48.106;11.548;2023-04-29T15:32:53;17.20;81.80
29813;DHT22;16707;48.106;11.548;2023-04-29T15:35:21;17.10;80.70
29813;DHT22;16707;48.106;11.548;2023-04-29T15:37:55;17.30;80.30
29813;DHT22;16707;48.106;11.548;2023-04-29T15:40:26;17.40;81.00
29813;DHT22;16707;48.106;11.548;2023-04-29T15:42:57;17.10;80.00